Time;durP1;ratioP1;P1;durP2;ratioP2;P2;SDS_P1;SDS_P2;PMS_P1;PMS_P2;Temp;Humidity;BMP_temperature;BMP_pressure;BME280_temperature;BME280_humidity;BME280_pressure;Samples;Min_cycle;Max_cycle;Signal;HPM_P1;HPM_P2
2023/12/16 00:00:39;;;;;;;9.57;9.17;;;;;;;2.85;100.00;93592.44;5063484;28;20210;-76
2023/12/16 00:03:04;;;;;;;9.23;8.93;;;;;;;3.26;100.00;93597.16;5068200;28;20235;-76
2023/12/16 00:05:30;;;;;;;10.50;10.10;;;;;;;3.02;100.00;93587.56;5084811;28;20180;-78
2023/12/16 00:07:55;;;;;;;8.73;8.43;;;;;;;3.26;100.00;93604.88;5066966;28;20229;-76
2023/12/16 00:10:21;;;;;;;9.77;9.47;;;;;;;2.85;100.00;93601.97;5071837;28;20207;-75
2023/12/16 00:12:46;;;;;;;10.57;10.20;;;;;;;2.81;100.00;93596.47;5069166;28;20228;-73
2023/12/16 00:15:11;;;;;;;9.60;9.27;;;;;;;3.20;100.00;93623.78;5067554;28;20198;-74
2023/12/16 00:17:37;;;;;;;10.37;9.97;;;;;;;2.98;100.00;93627.69;5071644;28;20213;-74
2023/12/16 00:20:03;;;;;;;9.50;8.90;;;;;;;2.77;100.00;93618.47;5064435;28;20245;-73
2023/12/16 00:22:29;;;;;;;9.67;9.30;;;;;;;2.62;100.00;93637.78;5071252;28;20259;-73
2023/12/16 00:24:55;;;;;;;9.97;9.67;;;;;;;2.78;100.00;93640.69;5072668;28;20186;-74
2023/12/16 00:27:20;;;;;;;9.60;9.30;;;;;;;2.82;100.00;93638.47;5071686;28;20264;-74
2023/12/16 00:29:46;;;;;;;10.93;10.43;;;;;;;2.70;100.00;93634.97;5057026;28;20178;-73
2023/12/16 00:32:11;;;;;;;9.30;9.00;;;;;;;3.19;100.00;93635.88;5066935;28;20888;-74
2023/12/16 00:34:36;;;;;;;9.57;9.27;;;;;;;3.22;100.00;93632.88;5060580;28;20219;-74
2023/12/16 00:37:05;;;;;;;9.80;9.33;;;;;;;3.18;100.00;93620.63;5058306;28;20234;-73
2023/12/16 00:39:31;;;;;;;8.43;8.23;;;;;;;3.18;100.00;93649.00;5072309;28;20241;-74
2023/12/16 00:41:56;;;;;;;9.30;9.00;;;;;;;3.20;100.00;93645.22;5069286;28;20255;-73
2023/12/16 00:44:22;;;;;;;9.20;8.90;;;;;;;3.08;100.00;93653.84;5075745;28;20219;-73
2023/12/16 00:46:47;;;;;;;10.20;9.90;;;;;;;3.16;100.00;93650.97;5068636;28;20230;-74
2023/12/16 00:49:12;;;;;;;9.43;9.13;;;;;;;3.20;100.00;93659.91;5076121;28;20196;-74
2023/12/16 00:51:38;;;;;;;9.77;9.47;;;;;;;3.22;100.00;93660.50;5069653;28;20267;-73
2023/12/16 00:54:03;;;;;;;9.87;9.47;;;;;;;2.49;100.00;93653.31;5073090;28;20193;-74
2023/12/16 00:56:28;;;;;;;10.30;9.97;;;;;;;3.24;100.00;93663.63;5062238;28;20198;-73
2023/12/16 00:58:56;;;;;;;10.67;10.27;;;;;;;3.37;100.00;93652.44;5041447;28;20221;-74
2023/12/16 01:01:22;;;;;;;10.00;9.60;;;;;;;3.29;100.00;93658.66;5044135;28;20254;-74
2023/12/16 01:03:47;;;;;;;10.10;9.80;;;;;;;3.33;100.00;93658.03;5046853;28;20198;-74
2023/12/16 01:06:13;;;;;;;10.27;9.97;;;;;;;3.37;100.00;93662.75;5039371;28;20206;-74
2023/12/16 01:08:38;;;;;;;9.20;8.90;;;;;;;2.90;100.00;93661.44;5060208;28;20233;-74
2023/12/16 01:11:04;;;;;;;8.77;8.47;;;;;;;3.29;100.00;93677.50;5079719;28;20197;-73
2023/12/16 01:13:29;;;;;;;9.37;9.07;;;;;;;3.18;100.00;93667.84;5060217;28;20225;-73
2023/12/16 01:15:54;;;;;;;9.43;9.13;;;;;;;3.30;100.00;93668.75;5067623;28;20182;-74
2023/12/16 01:18:20;;;;;;;9.93;9.63;;;;;;;3.05;100.00;93675.66;5066311;28;20237;-74
2023/12/16 01:20:45;;;;;;;10.07;9.77;;;;;;;2.89;100.00;93655.53;5062608;28;20301;-74
2023/12/16 01:23:11;;;;;;;9.77;9.47;;;;;;;3.22;100.00;93676.75;5072055;28;20237;-73
2023/12/16 01:25:36;;;;;;;9.07;8.77;;;;;;;3.00;100.00;93678.06;5066397;28;20194;-74
2023/12/16 01:28:02;;;;;;;9.33;9.03;;;;;;;2.94;100.00;93667.81;5055482;28;20246;-74
2023/12/16 01:30:28;;;;;;;9.47;9.07;;;;;;;3.14;100.00;93681.38;5051563;28;20217;-74
2023/12/16 01:32:53;;;;;;;8.97;8.67;;;;;;;3.22;100.00;93668.25;5049204;28;20226;-73
2023/12/16 01:35:18;;;;;;;9.40;9.10;;;;;;;3.22;100.00;93679.31;5042936;28;20230;-73
2023/12/16 01:37:44;;;;;;;10.03;9.67;;;;;;;3.42;100.00;93674.06;5054448;28;20281;-74
2023/12/16 01:40:10;;;;;;;9.17;8.87;;;;;;;3.39;100.00;93679.63;5056860;28;20209;-74
2023/12/16 01:42:35;;;;;;;9.50;9.20;;;;;;;2.86;100.00;93680.91;5060498;28;20229;-73
2023/12/16 01:45:00;;;;;;;9.70;9.37;;;;;;;2.63;100.00;93680.63;5062102;28;20181;-74
2023/12/16 01:47:26;;;;;;;8.93;8.63;;;;;;;2.75;100.00;93679.00;5055808;28;20226;-74
2023/12/16 01:49:52;;;;;;;10.27;9.87;;;;;;;2.59;100.00;93685.41;5051074;28;20162;-74
2023/12/16 01:52:18;;;;;;;9.13;8.83;;;;;;;2.31;100.00;93677.16;5056978;28;20719;-74
2023/12/16 01:54:44;;;;;;;9.47;9.17;;;;;;;2.50;100.00;93680.66;5067247;28;20181;-74
2023/12/16 01:57:10;;;;;;;9.70;9.40;;;;;;;2.62;100.00;93681.59;5068591;28;20290;-73
2023/12/16 01:59:35;;;;;;;8.70;8.40;;;;;;;2.92;100.00;93685.25;5070370;28;20216;-77
2023/12/16 02:02:03;;;;;;;9.83;9.43;;;;;;;3.04;100.00;93692.13;5069769;28;20221;-78
2023/12/16 02:04:28;;;;;;;9.93;9.63;;;;;;;2.67;100.00;93695.47;5069167;28;20406;-77
2023/12/16 02:06:54;;;;;;;9.93;9.63;;;;;;;2.40;100.00;93670.78;5070416;28;20217;-77
2023/12/16 02:09:20;;;;;;;8.50;8.27;;;;;;;2.53;100.00;93669.94;5068460;28;20220;-77
2023/12/16 02:11:45;;;;;;;10.87;10.47;;;;;;;1.94;100.00;93664.94;5069056;28;20245;-77
2023/12/16 02:14:11;;;;;;;9.23;8.93;;;;;;;2.33;100.00;93680.31;5068631;28;20228;-76
2023/12/16 02:16:36;;;;;;;9.23;8.93;;;;;;;2.80;100.00;93686.91;5065837;28;20229;-77
2023/12/16 02:19:08;;;;;;;9.13;8.83;;;;;;;2.94;100.00;93683.28;5069260;28;20193;-77
2023/12/16 02:21:34;;;;;;;9.40;9.10;;;;;;;2.69;100.00;93690.13;5060087;28;20252;-76
2023/12/16 02:23:59;;;;;;;9.33;9.03;;;;;;;2.53;100.00;93685.41;5048909;28;20244;-77
2023/12/16 02:26:24;;;;;;;9.13;8.83;;;;;;;2.99;100.00;93701.47;5049013;28;20213;-77
2023/12/16 02:28:50;;;;;;;9.80;9.50;;;;;;;2.69;100.00;93700.44;5049977;28;20262;-77
2023/12/16 02:31:15;;;;;;;9.13;8.83;;;;;;;2.90;100.00;93702.72;5041871;28;20186;-78
2023/12/16 02:33:40;;;;;;;10.63;10.23;;;;;;;2.87;100.00;93697.97;5053310;28;20237;-77
2023/12/16 02:36:06;;;;;;;9.47;9.17;;;;;;;3.00;100.00;93708.25;5058166;28;20254;-77
2023/12/16 02:38:32;;;;;;;10.43;10.13;;;;;;;3.00;100.00;93713.41;5050798;28;20218;-77
2023/12/16 02:40:57;;;;;;;9.63;9.33;;;;;;;2.90;100.00;93706.09;5049933;28;20208;-77
2023/12/16 02:43:23;;;;;;;10.77;10.40;;;;;;;3.21;100.00;93708.72;5065570;28;20273;-77
2023/12/16 02:45:48;;;;;;;9.23;8.93;;;;;;;3.14;100.00;93720.06;5066109;28;20251;-77
2023/12/16 02:48:13;;;;;;;9.33;9.03;;;;;;;2.58;100.00;93703.63;5046826;28;20237;-76
2023/12/16 02:50:39;;;;;;;9.23;8.93;;;;;;;2.87;100.00;93729.72;5035448;28;20208;-77
2023/12/16 02:53:06;;;;;;;9.70;9.33;;;;;;;2.39;100.00;93725.09;5041502;28;20225;-76
2023/12/16 02:55:32;;;;;;;9.53;9.23;;;;;;;2.43;100.00;93724.47;5042064;28;20170;-77
2023/12/16 02:57:57;;;;;;;9.27;8.97;;;;;;;2.57;100.00;93707.22;5046099;28;20240;-77
2023/12/16 03:00:22;;;;;;;8.87;8.57;;;;;;;2.76;100.00;93721.81;5044633;28;20336;-76
2023/12/16 03:02:48;;;;;;;10.00;9.70;;;;;;;3.05;100.00;93724.66;5046679;28;20217;-78
2023/12/16 03:05:13;;;;;;;9.03;8.73;;;;;;;2.98;100.00;93730.84;5048420;28;20186;-77
2023/12/16 03:07:38;;;;;;;9.83;9.53;;;;;;;3.10;100.00;93734.38;5048984;28;20230;-76
2023/12/16 03:10:04;;;;;;;8.73;8.43;;;;;;;3.00;100.00;93734.03;5056685;28;20246;-77
2023/12/16 03:12:30;;;;;;;9.93;9.53;;;;;;;2.82;100.00;93732.09;5041946;28;20214;-76
2023/12/16 03:14:55;;;;;;;9.33;9.03;;;;;;;2.89;100.00;93742.41;5048407;28;20246;-77
2023/12/16 03:17:21;;;;;;;8.93;8.63;;;;;;;2.70;100.00;93707.97;5048527;28;20209;-76
2023/12/16 03:19:46;;;;;;;9.87;9.57;;;;;;;3.10;100.00;93734.38;5043956;28;20246;-77
2023/12/16 03:22:12;;;;;;;9.73;9.43;;;;;;;3.21;100.00;93741.47;5056200;28;20217;-77
2023/12/16 03:24:37;;;;;;;9.87;9.47;;;;;;;3.03;100.00;93725.88;5061337;28;20181;-77
2023/12/16 03:27:02;;;;;;;9.83;9.43;;;;;;;3.16;100.00;93736.91;5059994;28;20309;-78
2023/12/16 03:29:28;;;;;;;9.70;9.37;;;;;;;3.32;100.00;93751.13;5049443;28;20197;-77
2023/12/16 03:31:55;;;;;;;8.87;8.57;;;;;;;3.48;99.16;93753.25;5054550;28;20220;-78
2023/12/16 03:34:21;;;;;;;11.20;10.80;;;;;;;3.43;99.51;93760.00;5068934;28;20193;-77
2023/12/16 03:36:46;;;;;;;9.37;8.97;;;;;;;3.10;100.00;93755.00;5068819;28;20217;-76
2023/12/16 03:39:12;;;;;;;9.60;9.20;;;;;;;3.23;100.00;93760.13;5058556;28;20190;-77
2023/12/16 03:41:37;;;;;;;10.87;10.27;;;;;;;3.21;100.00;93749.19;5068825;28;20239;-77
2023/12/16 03:44:03;;;;;;;9.83;9.43;;;;;;;3.01;100.00;93761.38;5072993;28;20182;-77
2023/12/16 03:46:28;;;;;;;9.33;8.93;;;;;;;3.06;100.00;93743.53;5073181;28;20182;-77
2023/12/16 03:48:54;;;;;;;10.00;9.63;;;;;;;3.30;100.00;93761.66;5062723;28;20190;-78
2023/12/16 03:51:21;;;;;;;10.10;9.70;;;;;;;3.24;100.00;93775.38;5071157;28;20269;-77
2023/12/16 03:53:46;;;;;;;9.80;9.43;;;;;;;3.22;100.00;93789.50;5070534;28;20208;-77
2023/12/16 03:56:12;;;;;;;10.20;9.90;;;;;;;3.17;100.00;93782.38;5062366;28;20841;-77
2023/12/16 03:58:37;;;;;;;10.00;9.60;;;;;;;3.08;100.00;93793.13;5066447;28;20303;-77
2023/12/16 04:01:04;;;;;;;9.00;8.70;;;;;;;3.11;100.00;93784.97;5066761;28;20205;-78
2023/12/16 04:03:29;;;;;;;9.43;9.13;;;;;;;3.06;100.00;93801.06;5071569;28;20218;-77
2023/12/16 04:05:55;;;;;;;9.70;9.23;;;;;;;2.90;100.00;93796.34;5069590;28;20193;-77
2023/12/16 04:08:20;;;;;;;9.30;9.00;;;;;;;3.12;100.00;93802.03;5068387;28;20225;-77
2023/12/16 04:10:45;;;;;;;9.20;8.90;;;;;;;3.13;100.00;93813.94;5072562;28;20192;-78
2023/12/16 04:13:11;;;;;;;11.73;11.13;;;;;;;2.83;100.00;93812.84;5056869;28;20244;-77
2023/12/16 04:15:36;;;;;;;9.87;9.47;;;;;;;2.98;100.00;93818.53;5051445;28;20196;-77
2023/12/16 04:18:02;;;;;;;10.23;9.83;;;;;;;2.90;100.00;93805.88;5049416;28;20214;-78
2023/12/16 04:20:28;;;;;;;10.27;9.87;;;;;;;2.68;100.00;93807.09;5049673;28;20241;-77
2023/12/16 04:22:54;;;;;;;9.43;9.13;;;;;;;2.82;100.00;93811.22;5063030;28;20214;-77
2023/12/16 04:25:19;;;;;;;9.80;9.40;;;;;;;2.98;100.00;93829.66;5071367;28;20707;-77
2023/12/16 04:27:45;;;;;;;10.17;9.77;;;;;;;2.77;100.00;93818.81;5068355;28;20245;-77
2023/12/16 04:30:11;;;;;;;9.87;9.37;;;;;;;2.73;100.00;93802.94;5066851;28;20215;-77
2023/12/16 04:32:36;;;;;;;10.03;9.67;;;;;;;2.82;100.00;93817.19;5054116;28;20226;-76
2023/12/16 04:35:01;;;;;;;10.37;9.97;;;;;;;2.92;100.00;93824.50;5044139;28;20178;-75
2023/12/16 04:37:27;;;;;;;9.03;8.73;;;;;;;2.82;100.00;93818.97;5045900;28;20221;-78
2023/12/16 04:39:52;;;;;;;8.97;8.57;;;;;;;2.55;100.00;93809.72;5048609;28;20258;-77
2023/12/16 04:42:17;;;;;;;9.10;8.80;;;;;;;2.26;100.00;93798.03;5045979;28;20238;-76
2023/12/16 04:44:43;;;;;;;9.27;8.97;;;;;;;2.36;100.00;93815.69;5051987;28;20186;-76
2023/12/16 04:47:08;;;;;;;8.67;8.37;;;;;;;2.74;100.00;93838.03;5052104;28;20234;-76
2023/12/16 04:49:34;;;;;;;8.77;8.47;;;;;;;2.54;100.00;93841.63;5050680;28;20236;-76
2023/12/16 04:52:00;;;;;;;10.47;10.07;;;;;;;2.59;100.00;93849.56;5043912;28;20300;-77
2023/12/16 04:54:28;;;;;;;10.73;10.20;;;;;;;2.47;100.00;93825.38;5058754;28;20182;-76
2023/12/16 04:56:53;;;;;;;10.37;9.80;;;;;;;2.68;100.00;93846.56;5068339;28;20225;-77
2023/12/16 04:59:18;;;;;;;10.50;10.00;;;;;;;2.63;100.00;93830.13;5070738;28;20212;-76
2023/12/16 05:01:44;;;;;;;10.40;9.90;;;;;;;2.71;100.00;93837.63;5062272;28;20240;-77
2023/12/16 05:04:09;;;;;;;9.60;9.20;;;;;;;2.33;100.00;93777.44;5073141;28;20182;-77
2023/12/16 05:06:34;;;;;;;10.50;10.10;;;;;;;2.95;100.00;93847.31;5070153;28;20277;-77
2023/12/16 05:09:00;;;;;;;10.33;9.93;;;;;;;2.76;100.00;93855.88;5072573;28;20181;-77
2023/12/16 05:11:25;;;;;;;9.73;9.33;;;;;;;2.78;100.00;93854.69;5069182;28;20173;-78
2023/12/16 05:13:51;;;;;;;10.03;9.63;;;;;;;2.81;100.00;93854.31;5079511;28;20712;-77
2023/12/16 05:16:20;;;;;;;10.57;10.20;;;;;;;2.54;100.00;93857.09;5067199;28;21173;-77
2023/12/16 05:18:46;;;;;;;9.07;8.77;;;;;;;2.81;100.00;93868.97;5065545;28;20245;-77
2023/12/16 05:21:12;;;;;;;8.77;8.17;;;;;;;2.23;100.00;93859.47;5066947;28;20296;-77
2023/12/16 05:23:37;;;;;;;9.83;9.33;;;;;;;2.43;100.00;93880.91;5082133;28;20291;-76
2023/12/16 05:26:03;;;;;;;9.07;8.77;;;;;;;2.66;100.00;93876.13;5071820;28;20178;-77
2023/12/16 05:28:28;;;;;;;8.73;8.50;;;;;;;2.33;100.00;93880.47;5081879;28;20228;-76
2023/12/16 05:30:54;;;;;;;9.43;9.13;;;;;;;1.95;100.00;93887.94;5062037;28;20197;-77
2023/12/16 05:33:19;;;;;;;8.87;8.60;;;;;;;1.83;100.00;93883.56;5051806;28;20222;-77
2023/12/16 05:35:44;;;;;;;9.60;9.30;;;;;;;2.17;100.00;93896.31;5048528;28;20249;-77
2023/12/16 05:38:10;;;;;;;9.67;9.37;;;;;;;2.20;100.00;93893.34;5051140;28;20260;-76
2023/12/16 05:40:35;;;;;;;9.33;9.03;;;;;;;1.67;100.00;93876.22;5036427;28;20218;-76
2023/12/16 05:43:00;;;;;;;9.47;9.17;;;;;;;2.07;100.00;93903.63;5049338;28;21739;-77
2023/12/16 05:45:26;;;;;;;9.50;9.20;;;;;;;2.34;100.00;93889.78;5060400;28;20197;-76
2023/12/16 05:47:52;;;;;;;8.30;8.10;;;;;;;2.44;100.00;93877.31;5056415;28;20272;-76
2023/12/16 05:50:17;;;;;;;8.57;8.33;;;;;;;2.46;100.00;93889.00;5057626;28;20189;-78
2023/12/16 05:52:43;;;;;;;9.83;9.53;;;;;;;2.31;100.00;93896.13;5064538;28;20806;-76
2023/12/16 05:55:08;;;;;;;10.03;9.73;;;;;;;2.51;100.00;93903.88;5063416;28;20216;-75
2023/12/16 05:57:34;;;;;;;9.73;9.40;;;;;;;2.25;100.00;93885.81;5059413;28;20222;-78
2023/12/16 06:00:00;;;;;;;9.63;9.33;;;;;;;2.19;100.00;93896.91;5048931;28;20210;-77
2023/12/16 06:02:25;;;;;;;9.87;9.57;;;;;;;2.21;100.00;93910.41;5050498;28;20233;-73
2023/12/16 06:04:50;;;;;;;10.23;9.90;;;;;;;2.31;100.00;93913.38;5039231;28;20214;-74
2023/12/16 06:07:16;;;;;;;9.50;9.20;;;;;;;2.16;100.00;93915.34;5060689;28;20226;-73
2023/12/16 06:09:41;;;;;;;9.13;8.83;;;;;;;2.35;100.00;93914.59;5044143;28;20191;-75
2023/12/16 06:12:07;;;;;;;7.90;7.70;;;;;;;2.44;100.00;93921.94;5045313;28;20221;-77
2023/12/16 06:14:32;;;;;;;9.23;8.93;;;;;;;2.46;100.00;93914.78;5047400;28;20194;-77
2023/12/16 06:16:57;;;;;;;10.63;10.27;;;;;;;2.05;100.00;93933.94;5046528;28;20223;-84
2023/12/16 06:19:23;;;;;;;10.07;9.53;;;;;;;1.96;100.00;93925.59;5046911;28;20234;-77
2023/12/16 06:21:48;;;;;;;9.73;9.23;;;;;;;2.40;100.00;93933.59;5047448;28;20241;-77
2023/12/16 06:24:13;;;;;;;9.57;9.13;;;;;;;2.27;100.00;93943.09;5047918;28;20194;-76
2023/12/16 06:26:39;;;;;;;9.30;9.00;;;;;;;2.32;100.00;93945.91;5044654;28;21122;-76
2023/12/16 06:29:04;;;;;;;8.93;8.63;;;;;;;2.18;100.00;93941.72;5042840;28;20198;-75
2023/12/16 06:31:29;;;;;;;9.87;9.53;;;;;;;2.63;100.00;93946.13;5044398;28;20187;-79
2023/12/16 06:33:55;;;;;;;8.73;8.43;;;;;;;2.64;100.00;93958.03;5050222;28;20817;-75
2023/12/16 06:36:20;;;;;;;9.57;9.27;;;;;;;2.47;100.00;93967.13;5050292;28;20254;-75
2023/12/16 06:38:46;;;;;;;9.27;8.97;;;;;;;2.73;99.93;93969.72;5067627;28;20196;-79
2023/12/16 06:41:11;;;;;;;10.17;9.77;;;;;;;2.35;100.00;93960.97;5061371;28;20220;-78
2023/12/16 06:43:36;;;;;;;10.13;9.63;;;;;;;2.34;100.00;93970.47;5041581;28;20226;-78
2023/12/16 06:46:02;;;;;;;9.20;8.90;;;;;;;1.97;100.00;93983.84;5039428;28;20208;-75
2023/12/16 06:48:27;;;;;;;9.60;9.30;;;;;;;2.22;100.00;93982.34;5044759;28;20226;-81
2023/12/16 06:50:57;;;;;;;9.90;9.43;;;;;;;2.43;100.00;93989.91;5081682;28;20268;-82
2023/12/16 06:53:22;;;;;;;9.87;9.47;;;;;;;2.42;100.00;94003.78;5036392;28;20225;-81
2023/12/16 06:55:48;;;;;;;10.17;9.67;;;;;;;2.59;99.73;94004.22;5045687;28;20171;-78
2023/12/16 06:58:13;;;;;;;10.07;9.67;;;;;;;2.64;99.45;94001.84;5064646;28;20218;-77
2023/12/16 07:00:38;;;;;;;9.17;8.87;;;;;;;2.33;100.00;94024.78;5069368;28;20213;-78
2023/12/16 07:03:04;;;;;;;9.37;9.07;;;;;;;1.90;100.00;94018.28;5068308;28;20225;-78
2023/12/16 07:05:32;;;;;;;9.80;9.50;;;;;;;1.88;100.00;94020.25;5065181;28;20203;-76
2023/12/16 07:07:58;;;;;;;9.33;9.03;;;;;;;2.36;100.00;94021.81;5052782;28;20281;-74
2023/12/16 07:10:23;;;;;;;10.03;9.63;;;;;;;2.28;100.00;94035.66;5054048;28;20213;-78
2023/12/16 07:12:49;;;;;;;9.87;9.47;;;;;;;2.42;100.00;94033.91;5048342;28;20266;-76
2023/12/16 07:15:14;;;;;;;9.87;9.50;;;;;;;2.56;99.87;94038.91;5038580;28;20191;-75
2023/12/16 07:17:40;;;;;;;10.13;9.53;;;;;;;2.37;100.00;94051.72;5046792;28;21361;-76
2023/12/16 07:20:07;;;;;;;9.57;9.17;;;;;;;2.47;100.00;94049.59;5040352;28;20233;-73
2023/12/16 07:22:32;;;;;;;8.33;7.93;;;;;;;1.90;100.00;94047.38;5033740;28;20214;-74
2023/12/16 07:24:57;;;;;;;9.50;9.07;;;;;;;2.25;100.00;94040.41;5039388;28;20179;-74
2023/12/16 07:27:23;;;;;;;9.03;8.73;;;;;;;1.95;100.00;94032.16;5033328;28;20234;-74
2023/12/16 07:29:49;;;;;;;9.90;9.50;;;;;;;2.07;100.00;94060.75;5037425;28;20270;-74
2023/12/16 07:32:14;;;;;;;9.73;9.40;;;;;;;2.23;100.00;94047.50;5040353;28;20230;-75
2023/12/16 07:34:40;;;;;;;8.87;8.57;;;;;;;2.59;100.00;94066.06;5042352;28;20193;-74
2023/12/16 07:37:06;;;;;;;9.90;9.50;;;;;;;2.49;99.60;94053.56;5038204;28;20254;-74
2023/12/16 07:39:31;;;;;;;9.90;9.50;;;;;;;2.73;99.19;94067.69;5043979;28;20206;-77
2023/12/16 07:41:56;;;;;;;9.70;9.33;;;;;;;2.34;100.00;94072.72;5048355;28;20222;-75
2023/12/16 07:44:22;;;;;;;10.50;10.10;;;;;;;2.19;100.00;94070.31;5047979;28;20194;-76
2023/12/16 07:46:47;;;;;;;10.33;9.83;;;;;;;2.08;100.00;94065.69;5047148;28;20230;-73
2023/12/16 07:49:12;;;;;;;10.07;9.67;;;;;;;2.62;100.00;94076.78;5044225;28;21034;-76
2023/12/16 07:51:38;;;;;;;10.47;9.97;;;;;;;2.38;100.00;94079.88;5037640;28;20268;-74
2023/12/16 07:54:03;;;;;;;12.10;11.50;;;;;;;2.06;100.00;94084.88;5059751;28;20207;-73
2023/12/16 07:56:28;;;;;;;10.73;10.23;;;;;;;2.40;99.42;94095.94;5060829;28;20200;-74
2023/12/16 07:58:54;;;;;;;9.53;8.93;;;;;;;2.55;98.56;94085.50;5063131;28;20190;-76
2023/12/16 08:01:20;;;;;;;11.40;10.70;;;;;;;2.54;97.60;94078.75;5059245;28;20239;-74
2023/12/16 08:03:47;;;;;;;10.03;9.53;;;;;;;2.32;98.32;94079.88;5067374;28;20248;-74
2023/12/16 08:06:16;;;;;;;10.07;9.57;;;;;;;2.65;98.83;94099.63;5066758;28;20252;-74
2023/12/16 08:08:43;;;;;;;10.87;10.33;;;;;;;2.77;98.94;94110.94;5058225;28;20213;-74
2023/12/16 08:11:09;;;;;;;10.97;10.47;;;;;;;1.92;100.00;94103.84;5059989;28;20217;-74
2023/12/16 08:13:35;;;;;;;10.07;9.77;;;;;;;2.00;100.00;94107.06;5083632;28;20698;-73
2023/12/16 08:16:01;;;;;;;9.57;9.27;;;;;;;2.38;99.44;94110.03;5063393;28;20281;-79
2023/12/16 08:18:28;;;;;;;9.97;9.57;;;;;;;2.35;99.86;94118.16;5045639;28;20233;-78
2023/12/16 08:20:54;;;;;;;9.23;8.93;;;;;;;2.51;100.00;94120.38;5042600;28;20236;-73
2023/12/16 08:23:20;;;;;;;10.47;10.00;;;;;;;2.76;99.97;94124.84;5044120;28;20301;-74
2023/12/16 08:25:45;;;;;;;12.93;12.20;;;;;;;1.88;100.00;94123.22;5037784;28;20182;-73
2023/12/16 08:28:11;;;;;;;10.33;9.93;;;;;;;2.50;100.00;94108.47;5059081;28;20255;-72
2023/12/16 08:30:37;;;;;;;10.43;10.03;;;;;;;2.28;99.36;94125.03;5064340;28;20192;-73
2023/12/16 08:33:02;;;;;;;10.43;9.87;;;;;;;2.80;97.23;94136.34;5077208;28;20791;-72
2023/12/16 08:35:28;;;;;;;10.03;9.63;;;;;;;3.06;97.63;94135.63;5068099;28;20200;-72
2023/12/16 08:37:55;;;;;;;8.63;8.33;;;;;;;2.26;98.24;94127.78;5057713;28;20230;-73
2023/12/16 08:40:20;;;;;;;9.93;9.63;;;;;;;2.94;98.85;94137.97;5051080;28;20209;-73
2023/12/16 08:42:46;;;;;;;9.57;9.17;;;;;;;2.58;97.28;94126.34;5052596;28;20222;-72
2023/12/16 08:45:11;;;;;;;9.37;8.97;;;;;;;3.06;96.71;94127.88;5064567;28;20770;-72
2023/12/16 08:47:37;;;;;;;10.27;9.80;;;;;;;3.25;95.67;94129.72;5057004;28;20287;-73
2023/12/16 08:50:03;;;;;;;9.63;9.33;;;;;;;3.05;95.30;94127.09;5061830;28;20245;-73
2023/12/16 08:52:31;;;;;;;9.00;8.60;;;;;;;3.32;95.19;94120.19;5060263;28;20233;-72
2023/12/16 08:54:57;;;;;;;9.63;9.33;;;;;;;2.86;97.11;94119.31;5062492;28;20196;-72
2023/12/16 08:57:23;;;;;;;9.73;9.43;;;;;;;3.50;94.94;94133.31;5070100;28;20236;-73
2023/12/16 08:59:48;;;;;;;9.07;8.77;;;;;;;2.78;95.69;94134.94;5070243;28;20220;-72
2023/12/16 09:02:14;;;;;;;9.77;9.43;;;;;;;3.13;95.92;94132.06;5068664;28;20251;-72
2023/12/16 09:04:39;;;;;;;10.33;9.80;;;;;;;2.82;97.21;94129.22;5069101;28;20200;-72
2023/12/16 09:07:05;;;;;;;9.43;9.13;;;;;;;3.06;95.04;94120.16;5064366;28;20233;-73
2023/12/16 09:09:30;;;;;;;10.27;9.87;;;;;;;2.74;95.30;94121.66;5065927;28;20193;-72
2023/12/16 09:11:56;;;;;;;9.27;8.97;;;;;;;3.00;95.06;94121.72;5072292;28;20228;-73
2023/12/16 09:14:22;;;;;;;10.30;9.90;;;;;;;2.68;95.49;94106.16;5070125;28;20190;-74
2023/12/16 09:16:48;;;;;;;10.00;9.67;;;;;;;3.33;97.84;94116.63;5077792;28;20209;-73
2023/12/16 09:19:13;;;;;;;9.77;9.47;;;;;;;2.49;97.36;94097.38;5067143;28;20300;-75
2023/12/16 09:21:39;;;;;;;10.00;9.57;;;;;;;2.98;95.52;94112.59;5065833;28;20239;-72
2023/12/16 09:24:05;;;;;;;9.17;8.87;;;;;;;2.43;97.12;94087.84;5069947;28;20253;-73
2023/12/16 09:26:31;;;;;;;10.10;9.70;;;;;;;3.19;94.26;94104.69;5068349;28;20205;-73
2023/12/16 09:28:57;;;;;;;8.93;8.63;;;;;;;3.25;93.79;94117.59;5079274;28;20543;-72
2023/12/16 09:31:22;;;;;;;9.10;8.80;;;;;;;4.01;91.77;94113.59;5068656;28;20217;-73
2023/12/16 09:33:48;;;;;;;10.00;9.63;;;;;;;3.23;94.01;94090.41;5063295;28;20273;-73
2023/12/16 09:36:13;;;;;;;9.80;9.40;;;;;;;3.19;94.41;94086.63;5068696;28;20206;-73
2023/12/16 09:38:39;;;;;;;10.67;9.83;;;;;;;2.89;96.74;94075.06;5063615;28;20248;-73
2023/12/16 09:41:22;;;;;;;9.57;9.07;;;;;;;3.65;93.39;94084.84;5067873;28;20240;-73
2023/12/16 09:43:54;;;;;;;9.73;9.40;;;;;;;4.05;89.74;94101.03;5072097;28;20297;-73
2023/12/16 09:46:25;;;;;;;10.73;10.33;;;;;;;4.07;92.24;94094.69;5061914;28;20187;-72
2023/12/16 09:48:51;;;;;;;9.47;9.07;;;;;;;4.03;92.10;94114.16;5065258;28;20194;-74
2023/12/16 09:51:16;;;;;;;9.83;9.23;;;;;;;3.65;92.53;94095.16;5060818;28;20215;-72
2023/12/16 09:53:42;;;;;;;9.60;9.23;;;;;;;3.61;91.49;94113.84;5069857;28;20201;-72
2023/12/16 09:56:13;;;;;;;10.47;10.07;;;;;;;3.34;92.89;94110.47;5062252;28;20197;-72
2023/12/16 09:58:43;;;;;;;10.30;9.90;;;;;;;3.33;92.63;94108.88;5067750;28;20246;-71
2023/12/16 10:01:10;;;;;;;9.97;9.47;;;;;;;2.67;95.59;94110.53;5069978;28;20223;-74
2023/12/16 10:03:37;;;;;;;9.33;9.03;;;;;;;3.42;93.62;94102.53;5066221;28;20236;-72
2023/12/16 10:06:05;;;;;;;9.77;9.37;;;;;;;3.14;93.49;94112.22;5069652;28;20205;-75
2023/12/16 10:08:30;;;;;;;10.33;9.93;;;;;;;3.46;92.95;94080.47;5066485;28;20222;-75
2023/12/16 10:11:00;;;;;;;9.50;9.10;;;;;;;3.74;91.63;94099.13;5069491;28;20227;-73
2023/12/16 10:13:30;;;;;;;9.10;8.80;;;;;;;2.96;93.48;94096.50;5062884;28;20217;-74
2023/12/16 10:15:56;;;;;;;9.47;9.00;;;;;;;3.18;95.00;94101.31;5070942;28;20205;-75
2023/12/16 10:18:22;;;;;;;10.07;9.70;;;;;;;2.96;93.36;94093.91;5060054;28;20228;-75
2023/12/16 10:20:47;;;;;;;9.27;8.97;;;;;;;3.24;93.02;94091.97;5062901;28;20311;-74
2023/12/16 10:23:13;;;;;;;9.83;9.43;;;;;;;2.54;95.10;94068.44;5062901;28;20225;-74
2023/12/16 10:25:42;;;;;;;9.53;9.13;;;;;;;2.59;94.97;94097.81;5063780;28;20212;-75
2023/12/16 10:28:07;;;;;;;9.33;9.03;;;;;;;3.18;94.16;94096.16;5065132;28;20217;-73
2023/12/16 10:30:33;;;;;;;10.27;9.67;;;;;;;3.87;92.06;94093.94;5063855;28;20334;-73
2023/12/16 10:33:06;;;;;;;10.40;10.00;;;;;;;3.51;91.84;94093.59;5064462;28;20229;-76
2023/12/16 10:35:31;;;;;;;9.30;8.90;;;;;;;3.50;92.83;94093.78;5067469;28;20200;-77
2023/12/16 10:37:58;;;;;;;10.67;10.13;;;;;;;3.26;92.29;94093.38;5050984;28;20291;-78
2023/12/16 10:40:23;;;;;;;9.33;9.03;;;;;;;3.30;90.96;94091.19;5038408;28;20322;-77
2023/12/16 10:42:49;;;;;;;9.57;9.27;;;;;;;3.43;92.73;94098.94;5046552;28;20218;-75
2023/12/16 10:45:14;;;;;;;9.80;9.43;;;;;;;4.31;89.52;94091.44;5048411;28;20210;-79
2023/12/16 10:47:41;;;;;;;10.60;10.20;;;;;;;3.63;92.27;94079.06;5047274;28;20233;-79
2023/12/16 10:50:07;;;;;;;9.27;8.97;;;;;;;3.83;90.79;94102.31;5049636;28;20336;-82
2023/12/16 10:52:41;;;;;;;10.80;10.40;;;;;;;3.86;89.54;94086.41;5046020;28;20228;-78
2023/12/16 10:55:14;;;;;;;9.90;9.50;;;;;;;3.29;91.33;94099.91;5041907;28;20748;-79
2023/12/16 10:57:46;;;;;;;9.73;9.27;;;;;;;3.61;91.56;94104.28;5040778;28;20211;-75
2023/12/16 11:00:16;;;;;;;10.00;9.43;;;;;;;4.07;88.88;94099.88;5040528;28;20222;-74
2023/12/16 11:03:04;;;;;;;11.10;10.60;;;;;;;3.97;90.89;94107.22;5040674;28;20225;-76
2023/12/16 11:05:34;;;;;;;9.57;9.17;;;;;;;3.51;89.93;94116.00;5048580;28;20193;-74
2023/12/16 11:08:04;;;;;;;10.77;10.27;;;;;;;3.71;92.19;94109.84;5044878;28;20241;-73
2023/12/16 11:10:33;;;;;;;10.50;10.00;;;;;;;3.77;90.14;94106.47;5045211;28;20186;-76
2023/12/16 11:13:03;;;;;;;9.80;9.30;;;;;;;4.56;88.27;94105.28;5058752;28;20244;-74
2023/12/16 11:15:34;;;;;;;10.90;10.40;;;;;;;4.78;86.98;94108.34;5064415;28;20192;-74
2023/12/16 11:18:05;;;;;;;10.10;9.70;;;;;;;4.43;88.63;94107.13;5051002;28;20483;-78
2023/12/16 11:20:47;;;;;;;10.67;10.17;;;;;;;3.79;88.39;94091.56;5045618;28;20249;-73
2023/12/16 11:23:16;;;;;;;9.73;9.23;;;;;;;4.11;89.80;94089.94;5047908;28;20218;-74
2023/12/16 11:25:42;;;;;;;9.83;9.43;;;;;;;3.65;89.38;94102.09;5048288;28;20186;-74